createdAt,value
2019-05-17T00:03:46.962Z,7.30
2019-05-17T00:08:51.818Z,7.50
2019-05-17T00:13:57.208Z,7.20
2019-05-17T00:19:02.504Z,6.87
2019-05-17T00:24:07.816Z,6.85
2019-05-17T00:29:13.140Z,6.80
2019-05-17T00:34:18.455Z,7.17
2019-05-17T00:39:23.947Z,7.20
2019-05-17T00:44:29.227Z,7.03
2019-05-17T00:49:36.973Z,7.00
2019-05-17T00:54:42.440Z,7.33
2019-05-17T00:59:48.004Z,7.50
2019-05-17T01:04:53.315Z,7.50
2019-05-17T01:09:58.906Z,8.50
2019-05-17T01:15:04.229Z,7.35
2019-05-17T01:20:10.110Z,7.30
2019-05-17T01:25:17.190Z,7.20
2019-05-17T01:30:22.542Z,7.22
2019-05-17T01:35:27.769Z,7.80
2019-05-17T01:40:32.980Z,7.92
2019-05-17T01:45:38.524Z,8.50
2019-05-17T01:50:46.455Z,8.80
2019-05-17T01:55:52.167Z,10.03
2019-05-17T02:00:57.549Z,10.07
2019-05-17T02:06:02.891Z,10.35
2019-05-17T02:11:08.122Z,10.63
2019-05-17T02:16:13.368Z,10.80
2019-05-17T02:21:18.657Z,11.75
2019-05-17T02:26:26.566Z,11.23
2019-05-17T02:31:32.854Z,11.83
2019-05-17T02:36:38.272Z,10.95
2019-05-17T02:41:43.651Z,10.90
2019-05-17T02:46:49.143Z,12.03
2019-05-17T02:51:54.729Z,13.93
2019-05-17T02:57:03.063Z,13.60
2019-05-17T03:02:08.000Z,13.47
2019-05-17T03:07:13.706Z,14.00
2019-05-17T03:12:19.347Z,14.10
2019-05-17T03:17:24.937Z,14.35
2019-05-17T03:22:33.252Z,14.77
2019-05-17T03:27:37.520Z,15.25
2019-05-17T03:32:47.582Z,15.93
2019-05-17T03:37:53.282Z,16.50
2019-05-17T03:42:58.675Z,16.10
2019-05-17T03:48:05.174Z,16.23
2019-05-17T03:53:13.216Z,15.60
2019-05-17T03:58:17.490Z,15.23
2019-05-17T04:03:23.292Z,15.33
2019-05-17T04:08:29.027Z,15.37
2019-05-17T04:13:34.523Z,15.30
2019-05-17T04:18:43.488Z,15.32
2019-05-17T04:23:47.205Z,15.32
2019-05-17T04:28:53.442Z,15.80
2019-05-17T04:34:02.647Z,16.55
2019-05-17T04:39:07.842Z,16.00
2019-05-17T04:44:13.143Z,16.95
2019-05-17T04:49:18.465Z,17.00
2019-05-17T04:54:23.765Z,17.10
2019-05-17T04:59:33.896Z,15.45
2019-05-17T05:04:38.610Z,15.70
2019-05-17T05:09:43.974Z,15.55
2019-05-17T05:14:52.186Z,15.03
2019-05-17T05:19:56.842Z,15.40
2019-05-17T05:25:02.363Z,16.07
2019-05-17T05:30:07.909Z,14.95
2019-05-17T05:35:13.438Z,14.77
2019-05-17T05:40:18.818Z,15.72
2019-05-17T05:45:24.037Z,13.75
2019-05-17T05:50:29.298Z,13.67
2019-05-17T05:55:34.593Z,14.38
2019-05-17T06:00:42.810Z,13.60
2019-05-17T06:05:47.172Z,13.70
2019-05-17T06:10:53.064Z,14.63
2019-05-17T06:15:58.636Z,13.35
2019-05-17T06:21:03.887Z,13.73
2019-05-17T06:26:12.293Z,13.32
2019-05-17T06:31:16.949Z,13.18
2019-05-17T06:36:24.460Z,12.73
2019-05-17T06:41:32.193Z,12.68
2019-05-17T06:46:37.017Z,11.28
2019-05-17T06:51:42.734Z,10.60
2019-05-17T06:56:48.351Z,11.57
2019-05-17T07:01:54.337Z,10.65
2019-05-17T07:07:17.173Z,9.70
2019-05-17T07:12:22.418Z,8.88
2019-05-17T07:17:30.254Z,9.05
2019-05-17T07:22:34.793Z,9.05
2019-05-17T07:27:45.296Z,9.30
2019-05-17T07:32:49.615Z,9.20
2019-05-17T07:37:54.118Z,9.38
2019-05-17T07:43:09.768Z,8.40
2019-05-17T07:48:06.829Z,8.60
2019-05-17T07:53:12.137Z,8.28
2019-05-17T07:58:17.377Z,8.70
2019-05-17T08:03:24.811Z,9.65
2019-05-17T08:08:30.932Z,8.45
2019-05-17T08:13:36.805Z,9.68
2019-05-17T08:18:42.092Z,8.43
2019-05-17T08:23:47.394Z,8.20
2019-05-17T08:28:53.501Z,8.10
2019-05-17T08:34:00.045Z,8.20
2019-05-17T08:39:07.197Z,8.07
2019-05-17T08:44:12.690Z,7.58
2019-05-17T08:49:20.213Z,7.92
2019-05-17T08:54:25.523Z,7.90
2019-05-17T08:59:30.879Z,7.95
2019-05-17T09:04:36.246Z,8.15
2019-05-17T09:09:41.495Z,8.70
2019-05-17T09:14:49.472Z,8.23
2019-05-17T09:19:55.269Z,9.60
2019-05-17T09:25:00.547Z,10.50
2019-05-17T09:30:06.535Z,10.00
2019-05-17T09:35:11.887Z,11.77
2019-05-17T09:40:17.326Z,11.10
2019-05-17T09:45:22.734Z,11.87
2019-05-17T09:50:29.396Z,11.85
2019-05-17T09:55:35.155Z,11.53
2019-05-17T10:00:41.280Z,13.08
2019-05-17T10:05:46.641Z,12.05
2019-05-17T10:11:04.942Z,13.70
2019-05-17T10:16:00.484Z,14.38
2019-05-17T10:21:06.222Z,14.60
2019-05-17T10:26:11.487Z,15.25
2019-05-17T10:31:19.729Z,16.77
2019-05-17T10:36:25.364Z,17.07
2019-05-17T10:41:30.696Z,16.73
2019-05-17T10:46:35.955Z,17.70
2019-05-17T10:51:41.463Z,17.80
2019-05-17T10:56:46.696Z,18.30
2019-05-17T11:01:51.923Z,17.87
2019-05-17T11:06:59.480Z,20.45
2019-05-17T11:12:04.417Z,18.60
2019-05-17T11:17:09.802Z,20.32
2019-05-17T11:22:17.405Z,19.73
2019-05-17T11:27:23.144Z,19.57
2019-05-17T11:32:28.707Z,19.32
2019-05-17T11:37:33.964Z,19.37
2019-05-17T11:42:39.195Z,19.07
2019-05-17T11:47:44.640Z,19.50
2019-05-17T11:52:49.890Z,19.43
2019-05-17T11:57:55.161Z,19.40
2019-05-17T12:03:00.410Z,18.47
2019-05-17T12:08:08.654Z,17.60
2019-05-17T12:13:12.859Z,17.75
2019-05-17T12:18:18.543Z,18.23
2019-05-17T12:23:23.843Z,17.80
2019-05-17T12:28:29.515Z,16.77
2019-05-17T12:33:34.783Z,16.13
2019-05-17T12:38:40.295Z,14.20
2019-05-17T12:43:45.548Z,14.20
2019-05-17T12:48:51.827Z,12.07
2019-05-17T12:53:57.335Z,11.97
2019-05-17T12:59:03.195Z,13.22
2019-05-17T13:04:11.770Z,14.40
2019-05-17T13:09:17.703Z,11.63
2019-05-17T13:14:23.289Z,14.07
2019-05-17T13:19:28.697Z,12.40
2019-05-17T13:24:34.626Z,11.85
2019-05-17T13:29:40.859Z,12.40
2019-05-17T13:34:46.408Z,12.40
2019-05-17T13:39:51.748Z,12.10
2019-05-17T13:44:57.240Z,11.20
2019-05-17T13:50:02.564Z,10.10
2019-05-17T13:55:09.518Z,11.35
2019-05-17T14:00:15.321Z,12.23
2019-05-17T14:05:20.741Z,13.15
2019-05-17T14:10:28.616Z,11.97
2019-05-17T14:15:32.977Z,11.67
2019-05-17T14:20:38.212Z,11.78
2019-05-17T14:25:43.541Z,10.28
2019-05-17T14:30:48.808Z,8.70
2019-05-17T14:35:54.196Z,8.85
2019-05-17T14:41:06.266Z,7.83
2019-05-17T14:46:06.835Z,7.08
2019-05-17T14:51:12.075Z,8.03
2019-05-17T14:56:17.351Z,7.30
2019-05-17T15:01:22.665Z,6.08
2019-05-17T15:06:28.017Z,5.80
2019-05-17T15:11:33.388Z,5.03
2019-05-17T15:16:40.932Z,4.80
2019-05-17T15:21:46.263Z,5.72
2019-05-17T15:27:04.741Z,5.35
2019-05-17T15:31:58.842Z,5.20
2019-05-17T15:37:04.193Z,4.75
2019-05-17T15:42:10.074Z,4.10
2019-05-17T15:47:15.332Z,4.12
2019-05-17T15:52:20.828Z,4.33
2019-05-17T15:57:26.094Z,4.40
2019-05-17T16:02:31.321Z,4.45
2019-05-17T16:07:36.980Z,4.22
2019-05-17T16:12:42.248Z,4.53
2019-05-17T16:17:48.529Z,4.50
2019-05-17T16:22:53.846Z,4.60
2019-05-17T16:27:59.150Z,6.03
2019-05-17T16:33:04.387Z,5.08
2019-05-17T16:38:09.752Z,8.18
2019-05-17T16:43:18.397Z,7.12
2019-05-17T16:48:22.786Z,9.20
2019-05-17T16:53:28.036Z,5.97
2019-05-17T16:58:33.333Z,7.50
2019-05-17T17:03:44.236Z,5.80
2019-05-17T17:08:46.209Z,6.47
2019-05-17T17:13:53.556Z,8.87
2019-05-17T17:18:58.787Z,7.83
2019-05-17T17:24:05.305Z,9.18
2019-05-17T17:29:10.527Z,7.70
2019-05-17T17:34:15.851Z,7.70
2019-05-17T17:39:21.707Z,8.50
2019-05-17T17:44:27.351Z,7.13
2019-05-17T17:49:32.636Z,7.27
2019-05-17T17:54:38.324Z,7.90
2019-05-17T17:59:43.843Z,7.20
2019-05-17T18:04:49.177Z,7.23
2019-05-17T18:09:54.761Z,5.50
2019-05-17T18:15:03.431Z,5.55
2019-05-17T18:20:07.460Z,6.25
2019-05-17T18:25:13.000Z,6.42
2019-05-17T18:30:18.888Z,9.73
2019-05-17T18:35:24.388Z,14.38
2019-05-17T18:40:29.771Z,8.48
2019-05-17T18:45:35.039Z,6.90
2019-05-17T18:50:40.325Z,7.27
2019-05-17T18:55:45.655Z,7.43
2019-05-17T19:00:50.878Z,6.87
2019-05-17T19:05:56.368Z,9.13
2019-05-17T19:11:01.683Z,7.47
2019-05-17T19:16:07.305Z,7.22
2019-05-17T19:21:12.858Z,7.00
2019-05-17T19:26:19.244Z,7.78
2019-05-17T19:31:24.518Z,7.47
2019-05-17T19:36:29.833Z,7.80
2019-05-17T19:41:35.550Z,8.25
2019-05-17T19:46:41.088Z,9.90
2019-05-17T19:51:46.473Z,8.80
2019-05-17T19:56:52.206Z,11.00
2019-05-17T20:01:57.502Z,10.80
2019-05-17T20:07:02.804Z,10.08
2019-05-17T20:12:08.145Z,7.97
2019-05-17T20:17:13.411Z,8.40
2019-05-17T20:22:18.629Z,8.83
2019-05-17T20:27:23.958Z,8.50
2019-05-17T20:32:29.177Z,7.90
2019-05-17T20:37:34.471Z,6.43
2019-05-17T20:42:39.858Z,6.70
2019-05-17T20:47:45.197Z,6.80
2019-05-17T20:52:50.357Z,6.97
2019-05-17T20:57:55.580Z,7.12
2019-05-17T21:03:01.671Z,6.50
2019-05-17T21:08:06.913Z,9.73
2019-05-17T21:13:12.471Z,14.30
2019-05-17T21:18:18.066Z,10.43
2019-05-17T21:23:23.612Z,9.70
2019-05-17T21:28:29.246Z,9.80
2019-05-17T21:33:34.970Z,9.03
2019-05-17T21:38:40.571Z,11.40
2019-05-17T21:43:46.444Z,15.53
2019-05-17T21:48:51.764Z,13.45
2019-05-17T21:53:56.996Z,12.03
2019-05-17T21:59:02.734Z,16.87
2019-05-17T22:04:08.071Z,12.47
2019-05-17T22:09:13.792Z,9.30
2019-05-17T22:14:19.151Z,7.83
2019-05-17T22:19:24.718Z,7.80
2019-05-17T22:24:31.577Z,12.20
2019-05-17T22:29:36.810Z,9.33
2019-05-17T22:34:42.401Z,8.90
2019-05-17T22:39:47.780Z,7.73
2019-05-17T22:44:53.042Z,8.00
2019-05-17T22:49:58.296Z,7.50
2019-05-17T22:55:03.666Z,8.77
2019-05-17T23:00:09.464Z,6.60
2019-05-17T23:05:16.706Z,6.15
2019-05-17T23:10:22.342Z,6.10
2019-05-17T23:15:31.663Z,7.23
2019-05-17T23:20:38.064Z,6.70
2019-05-17T23:25:43.631Z,6.60
2019-05-17T23:30:49.387Z,6.97
2019-05-17T23:35:54.785Z,6.93
2019-05-17T23:41:00.011Z,6.80
2019-05-17T23:46:05.289Z,6.90
2019-05-17T23:51:11.080Z,7.80
2019-05-17T23:56:17.459Z,7.73
